Terminal Aerodrome Forecast
Issued by NWS Nashville, TN

Home | Current Version | Previous Version | Text Only | Print | Product List | Glossary On
Versions: 1 2 3 4 5 6 7 8 9 10 11 12 13 14 15 16 17 18 19 20 21
000
FTUS44 KOHX 201720
TAFCSV
TAF
KCSV 201720Z 2018/2118 21005KT P6SM SCT040
     FM210800 00000KT 3SM BR SKC
     FM211000 00000KT 1/2SM FG BKN005
     FM211400 00000KT 4SM BR SKC
     FM211600 00000KT P6SM SCT040=

USA.gov is the U.S. government's official web portal to all federal, state and local government web resources and services.